Time;durP1;ratioP1;P1;durP2;ratioP2;P2;SDS_P1;SDS_P2;PMS_P1;PMS_P2;Temp;Humidity;BMP_temperature;BMP_pressure;BME280_temperature;BME280_humidity;BME280_pressure;Samples;Min_cycle;Max_cycle;Signal;HPM_P1;HPM_P2
2021/04/29 00:02:14;;;;;;;4.50;2.30;;;;;;;;;;5098585;28;20040;-53
2021/04/29 00:04:41;;;;;;;7.85;2.50;;;;;;;;;;5088824;28;20042;-56
2021/04/29 00:07:07;;;;;;;3.88;2.38;;;;;;;;;;5088224;28;20086;-54
2021/04/29 00:09:34;;;;;;;6.22;2.60;;;;;;;;;;5085586;28;20036;-54
2021/04/29 00:12:00;;;;;;;4.45;2.47;;;;;;;;;;5093820;28;20195;-52
2021/04/29 00:14:27;;;;;;;6.47;2.47;;;;;;;;;;5085220;28;20435;-57
2021/04/29 00:16:54;;;;;;;3.47;2.38;;;;;;;;;;5088270;28;20044;-55
2021/04/29 00:19:20;;;;;;;3.20;1.90;;;;;;;;;;5089680;28;20036;-53
2021/04/29 00:21:46;;;;;;;4.97;2.28;;;;;;;;;;5089101;28;20081;-56
2021/04/29 00:24:13;;;;;;;3.13;2.30;;;;;;;;;;5087900;28;20044;-53
2021/04/29 00:26:39;;;;;;;3.15;2.30;;;;;;;;;;5086916;28;20044;-54
2021/04/29 00:29:05;;;;;;;2.70;2.00;;;;;;;;;;5090928;28;20390;-58
2021/04/29 00:31:33;;;;;;;4.28;2.10;;;;;;;;;;5091443;28;20105;-55
2021/04/29 00:33:59;;;;;;;2.47;2.22;;;;;;;;;;5089466;28;20127;-54
2021/04/29 00:36:26;;;;;;;4.70;2.22;;;;;;;;;;5084263;28;20048;-54
2021/04/29 00:38:53;;;;;;;2.20;2.00;;;;;;;;;;5090275;28;20146;-57
2021/04/29 00:41:19;;;;;;;5.65;2.50;;;;;;;;;;5089404;28;20450;-55
2021/04/29 00:43:45;;;;;;;3.28;2.30;;;;;;;;;;5090091;28;20032;-51
2021/04/29 00:46:15;;;;;;;6.57;2.47;;;;;;;;;;5087577;28;20040;-57
2021/04/29 00:48:41;;;;;;;5.43;2.53;;;;;;;;;;5086370;28;20048;-51
2021/04/29 00:51:08;;;;;;;4.75;2.67;;;;;;;;;;5090219;28;20044;-53
2021/04/29 00:53:38;;;;;;;4.65;2.17;;;;;;;;;;5088613;28;20041;-54
2021/04/29 00:56:05;;;;;;;4.07;3.03;;;;;;;;;;5089612;28;20075;-53
2021/04/29 00:58:31;;;;;;;4.22;2.10;;;;;;;;;;5093421;28;20071;-54
2021/04/29 01:00:58;;;;;;;4.93;2.40;;;;;;;;;;5092607;28;20036;-52
2021/04/29 01:03:40;;;;;;;7.65;2.50;;;;;;;;;;5083957;28;20101;-54
2021/04/29 01:06:08;;;;;;;6.65;2.92;;;;;;;;;;5087793;28;20097;-58
2021/04/29 01:08:41;;;;;;;5.25;2.72;;;;;;;;;;5085587;28;20464;-55
2021/04/29 01:11:14;;;;;;;9.85;2.70;;;;;;;;;;5089783;28;20075;-51
2021/04/29 01:13:42;;;;;;;3.08;2.25;;;;;;;;;;5086750;28;20045;-53
2021/04/29 01:16:10;;;;;;;4.80;2.35;;;;;;;;;;5086816;28;20078;-52
2021/04/29 01:18:36;;;;;;;4.38;2.35;;;;;;;;;;5089715;28;20043;-54
2021/04/29 01:21:04;;;;;;;5.97;2.45;;;;;;;;;;5086861;28;20596;-50
2021/04/29 01:23:42;;;;;;;5.70;2.50;;;;;;;;;;5091174;28;20044;-51
2021/04/29 01:26:18;;;;;;;4.68;2.65;;;;;;;;;;5086591;28;20036;-55
2021/04/29 01:28:46;;;;;;;4.18;2.50;;;;;;;;;;5082320;28;20071;-51
2021/04/29 01:31:12;;;;;;;3.85;2.10;;;;;;;;;;5085458;28;20052;-52
2021/04/29 01:33:39;;;;;;;6.13;2.70;;;;;;;;;;5083207;28;20127;-51
2021/04/29 01:36:06;;;;;;;6.07;2.55;;;;;;;;;;5082280;28;20326;-52
2021/04/29 01:38:32;;;;;;;4.55;2.67;;;;;;;;;;5086199;28;20079;-55
2021/04/29 01:40:58;;;;;;;4.72;2.47;;;;;;;;;;5086488;28;20032;-53
2021/04/29 01:43:25;;;;;;;4.07;2.45;;;;;;;;;;5089476;28;20101;-50
2021/04/29 01:45:51;;;;;;;3.97;2.58;;;;;;;;;;5090942;28;20518;-54
2021/04/29 01:48:18;;;;;;;6.40;2.63;;;;;;;;;;5088128;28;20055;-54
2021/04/29 01:50:45;;;;;;;4.45;2.97;;;;;;;;;;5089677;28;20279;-52
2021/04/29 01:53:11;;;;;;;4.53;2.78;;;;;;;;;;5084131;28;20420;-51
2021/04/29 01:55:38;;;;;;;6.03;2.47;;;;;;;;;;5088458;28;20119;-55
2021/04/29 01:58:04;;;;;;;4.38;2.75;;;;;;;;;;5090551;28;20561;-52
2021/04/29 02:00:31;;;;;;;6.75;2.50;;;;;;;;;;5084129;28;20063;-53
2021/04/29 02:03:00;;;;;;;6.30;2.83;;;;;;;;;;5083685;28;20089;-50
2021/04/29 02:05:27;;;;;;;6.65;2.92;;;;;;;;;;5082436;28;20047;-51
2021/04/29 02:07:53;;;;;;;7.75;3.03;;;;;;;;;;5085483;28;20044;-51
2021/04/29 02:10:19;;;;;;;4.70;3.05;;;;;;;;;;5085012;28;20631;-51
2021/04/29 02:12:52;;;;;;;6.53;3.00;;;;;;;;;;5090916;28;20142;-53
2021/04/29 02:15:18;;;;;;;6.80;3.00;;;;;;;;;;5082936;28;20113;-51
2021/04/29 02:17:44;;;;;;;4.93;2.43;;;;;;;;;;5082791;28;20074;-55
2021/04/29 02:20:12;;;;;;;4.45;2.72;;;;;;;;;;5084588;28;20131;-52
2021/04/29 02:22:40;;;;;;;5.80;3.30;;;;;;;;;;5080623;28;20043;-53
2021/04/29 02:25:08;;;;;;;4.78;3.10;;;;;;;;;;5087622;28;20032;-54
2021/04/29 02:27:35;;;;;;;6.13;3.78;;;;;;;;;;5088638;28;20331;-57
2021/04/29 02:30:20;;;;;;;5.50;3.00;;;;;;;;;;5089666;28;20131;-54
2021/04/29 02:32:47;;;;;;;3.53;2.88;;;;;;;;;;5085425;28;20090;-55
2021/04/29 02:35:15;;;;;;;5.45;3.08;;;;;;;;;;5085884;28;20525;-53
2021/04/29 02:37:42;;;;;;;5.00;3.42;;;;;;;;;;5085107;28;20113;-55
2021/04/29 02:40:10;;;;;;;4.38;3.03;;;;;;;;;;5084379;28;20052;-55
2021/04/29 02:42:37;;;;;;;9.77;3.03;;;;;;;;;;5084928;28;20743;-53
2021/04/29 02:45:05;;;;;;;5.28;3.25;;;;;;;;;;5086287;28;20085;-53
2021/04/29 02:47:32;;;;;;;7.53;3.10;;;;;;;;;;5083821;28;20046;-55
2021/04/29 02:49:58;;;;;;;4.68;3.28;;;;;;;;;;5087872;28;20497;-55
2021/04/29 02:52:25;;;;;;;5.60;3.45;;;;;;;;;;5080084;28;20583;-52
2021/04/29 02:54:51;;;;;;;7.72;3.08;;;;;;;;;;5083716;28;20123;-56
2021/04/29 02:57:21;;;;;;;7.72;3.88;;;;;;;;;;5082981;28;20090;-54
2021/04/29 02:59:48;;;;;;;8.82;3.80;;;;;;;;;;5086604;28;20029;-51
2021/04/29 03:02:15;;;;;;;12.05;3.38;;;;;;;;;;5084306;28;20075;-51
2021/04/29 03:04:42;;;;;;;5.50;3.20;;;;;;;;;;5089709;28;20044;-56
2021/04/29 03:07:08;;;;;;;7.43;3.78;;;;;;;;;;5082186;28;20040;-52
2021/04/29 03:09:34;;;;;;;5.57;3.50;;;;;;;;;;5087671;28;20040;-56
2021/04/29 03:12:00;;;;;;;6.15;3.50;;;;;;;;;;5083408;28;20454;-56
2021/04/29 03:14:27;;;;;;;5.35;3.58;;;;;;;;;;5085591;28;20120;-52
2021/04/29 03:16:53;;;;;;;12.05;3.58;;;;;;;;;;5085973;28;20141;-55
2021/04/29 03:19:19;;;;;;;5.18;3.67;;;;;;;;;;5080339;28;20037;-51
2021/04/29 03:21:46;;;;;;;6.78;3.70;;;;;;;;;;5089449;28;20446;-53
2021/04/29 03:24:13;;;;;;;3.80;3.20;;;;;;;;;;5081215;28;20113;-52
2021/04/29 03:26:39;;;;;;;5.72;3.55;;;;;;;;;;5080540;28;20115;-52
2021/04/29 03:29:05;;;;;;;7.00;3.90;;;;;;;;;;5085643;28;20102;-53
2021/04/29 03:31:32;;;;;;;4.57;3.25;;;;;;;;;;5085950;28;20193;-55
2021/04/29 03:33:58;;;;;;;5.57;3.67;;;;;;;;;;5085697;28;20449;-53
2021/04/29 03:36:24;;;;;;;6.03;3.75;;;;;;;;;;5081385;28;20044;-53
2021/04/29 03:38:50;;;;;;;6.53;3.65;;;;;;;;;;5083463;28;20045;-54
2021/04/29 03:41:16;;;;;;;6.10;4.10;;;;;;;;;;5086517;28;20076;-54
2021/04/29 03:43:42;;;;;;;8.48;3.67;;;;;;;;;;5087987;28;20044;-53
2021/04/29 03:46:09;;;;;;;7.32;3.20;;;;;;;;;;5081423;28;20054;-53
2021/04/29 03:48:35;;;;;;;5.97;3.65;;;;;;;;;;5082890;28;20045;-50
2021/04/29 03:51:01;;;;;;;5.15;3.70;;;;;;;;;;5082651;28;20036;-52
2021/04/29 03:53:28;;;;;;;7.45;4.00;;;;;;;;;;5077673;28;20158;-54
2021/04/29 03:55:54;;;;;;;10.27;3.53;;;;;;;;;;5079183;28;20048;-53
2021/04/29 03:58:20;;;;;;;6.85;4.20;;;;;;;;;;5086297;28;20074;-55
2021/04/29 04:00:47;;;;;;;7.40;3.30;;;;;;;;;;5086886;28;20044;-53
2021/04/29 04:03:13;;;;;;;7.45;3.45;;;;;;;;;;5088371;28;20068;-50
2021/04/29 04:05:39;;;;;;;6.63;3.85;;;;;;;;;;5089199;28;20040;-52
2021/04/29 04:08:05;;;;;;;4.18;3.25;;;;;;;;;;5086666;28;20093;-51
2021/04/29 04:10:31;;;;;;;4.68;3.30;;;;;;;;;;5086900;28;20395;-52
2021/04/29 04:12:57;;;;;;;5.05;4.07;;;;;;;;;;5086833;28;20438;-52
2021/04/29 04:15:23;;;;;;;5.25;3.33;;;;;;;;;;5082976;28;20342;-50
2021/04/29 04:17:49;;;;;;;7.65;3.72;;;;;;;;;;5087678;28;20067;-55
2021/04/29 04:20:19;;;;;;;5.68;3.33;;;;;;;;;;5087613;28;20063;-54
2021/04/29 04:22:46;;;;;;;5.60;3.72;;;;;;;;;;5081713;28;20039;-54
2021/04/29 04:25:12;;;;;;;6.45;3.40;;;;;;;;;;5085030;28;20121;-53
2021/04/29 04:27:38;;;;;;;5.07;3.40;;;;;;;;;;5086952;28;20384;-52
2021/04/29 04:30:05;;;;;;;6.03;3.22;;;;;;;;;;5079897;28;20052;-50
2021/04/29 04:32:31;;;;;;;10.27;3.28;;;;;;;;;;5084520;28;20058;-55
2021/04/29 04:34:59;;;;;;;4.10;3.13;;;;;;;;;;5086026;28;20048;-55
2021/04/29 04:37:26;;;;;;;9.43;3.33;;;;;;;;;;5080786;28;20083;-53
2021/04/29 04:39:52;;;;;;;8.25;3.45;;;;;;;;;;5077647;28;20434;-52
2021/04/29 04:42:18;;;;;;;7.55;3.40;;;;;;;;;;5085795;28;20045;-50
2021/04/29 04:44:45;;;;;;;7.00;3.53;;;;;;;;;;5082334;28;20086;-50
2021/04/29 04:47:11;;;;;;;6.10;3.10;;;;;;;;;;5081675;28;20090;-52
2021/04/29 04:49:38;;;;;;;6.95;3.67;;;;;;;;;;5088650;28;20063;-50
2021/04/29 04:52:05;;;;;;;5.53;3.40;;;;;;;;;;5089542;28;20190;-53
2021/04/29 04:54:33;;;;;;;5.50;3.55;;;;;;;;;;5085395;28;20492;-54
2021/04/29 04:56:59;;;;;;;4.00;3.25;;;;;;;;;;5090272;28;20039;-52
2021/04/29 04:59:26;;;;;;;6.70;3.83;;;;;;;;;;5087095;28;20576;-55
2021/04/29 05:01:54;;;;;;;5.45;3.30;;;;;;;;;;5084790;28;20067;-53
2021/04/29 05:04:24;;;;;;;4.53;3.00;;;;;;;;;;5089175;28;20101;-51
2021/04/29 05:06:50;;;;;;;6.72;3.42;;;;;;;;;;5085279;28;20453;-50
2021/04/29 05:09:18;;;;;;;6.22;3.33;;;;;;;;;;5077817;28;20101;-50
2021/04/29 05:11:44;;;;;;;5.53;2.78;;;;;;;;;;5085694;28;20055;-52
2021/04/29 05:14:12;;;;;;;3.70;2.70;;;;;;;;;;5086691;28;20040;-55
2021/04/29 05:16:40;;;;;;;5.47;3.13;;;;;;;;;;5083269;28;20090;-50
2021/04/29 05:19:06;;;;;;;8.27;3.58;;;;;;;;;;5082952;28;20052;-57
2021/04/29 05:21:32;;;;;;;4.43;2.90;;;;;;;;;;5087941;28;20028;-52
2021/04/29 05:23:58;;;;;;;4.60;2.78;;;;;;;;;;5082789;28;20798;-51
2021/04/29 05:26:24;;;;;;;5.32;2.72;;;;;;;;;;5084388;28;20055;-55
2021/04/29 05:28:51;;;;;;;5.90;3.13;;;;;;;;;;5084918;28;20045;-55
2021/04/29 05:31:17;;;;;;;5.00;3.22;;;;;;;;;;5083556;28;20087;-52
2021/04/29 05:33:43;;;;;;;5.50;3.25;;;;;;;;;;5082747;28;20067;-53
2021/04/29 05:36:10;;;;;;;5.45;3.20;;;;;;;;;;5077843;28;20124;-55
2021/04/29 05:38:36;;;;;;;6.35;3.08;;;;;;;;;;5085482;28;20045;-52
2021/04/29 05:41:02;;;;;;;3.90;2.92;;;;;;;;;;5080773;28;20074;-55
2021/04/29 05:43:31;;;;;;;8.88;3.10;;;;;;;;;;5087936;28;20130;-56
2021/04/29 05:45:58;;;;;;;4.45;3.20;;;;;;;;;;5082745;28;20044;-54
2021/04/29 05:48:24;;;;;;;7.97;3.22;;;;;;;;;;5088166;28;20130;-54
2021/04/29 05:50:50;;;;;;;8.73;3.20;;;;;;;;;;5083492;28;20052;-52
2021/04/29 05:53:16;;;;;;;4.28;2.83;;;;;;;;;;5085265;28;20085;-54
2021/04/29 05:55:42;;;;;;;6.72;3.30;;;;;;;;;;5085725;28;20435;-57
2021/04/29 05:58:09;;;;;;;5.57;3.13;;;;;;;;;;5087572;28;20088;-54
2021/04/29 06:00:36;;;;;;;6.65;2.97;;;;;;;;;;5089271;28;20047;-56
2021/04/29 06:03:02;;;;;;;5.18;2.88;;;;;;;;;;5079517;28;20082;-56
2021/04/29 06:05:29;;;;;;;7.05;2.83;;;;;;;;;;5085902;28;20448;-57
2021/04/29 06:07:56;;;;;;;4.50;2.37;;;;;;;;;;5081021;28;20047;-54
2021/04/29 06:10:22;;;;;;;4.97;3.10;;;;;;;;;;5085322;28;20347;-55
2021/04/29 06:12:49;;;;;;;5.55;3.05;;;;;;;;;;5086349;28;20044;-52
2021/04/29 06:15:15;;;;;;;5.45;3.20;;;;;;;;;;5085760;28;20041;-56
2021/04/29 06:17:41;;;;;;;5.32;2.90;;;;;;;;;;5082528;28;20041;-57
2021/04/29 06:20:08;;;;;;;4.28;2.90;;;;;;;;;;5080991;28;20449;-57
2021/04/29 06:22:34;;;;;;;3.97;2.92;;;;;;;;;;5087615;28;20445;-52
2021/04/29 06:25:00;;;;;;;4.85;3.25;;;;;;;;;;5081079;28;20493;-52
2021/04/29 06:27:27;;;;;;;6.25;2.97;;;;;;;;;;5077461;28;20563;-52
2021/04/29 06:29:53;;;;;;;3.78;2.70;;;;;;;;;;5077533;28;22020;-54
2021/04/29 06:32:19;;;;;;;5.53;3.33;;;;;;;;;;5078757;28;20058;-57
2021/04/29 06:34:47;;;;;;;7.65;3.10;;;;;;;;;;5089262;28;20085;-51
2021/04/29 06:37:13;;;;;;;5.80;3.35;;;;;;;;;;5083293;28;20058;-53
2021/04/29 06:39:39;;;;;;;6.15;3.10;;;;;;;;;;5080953;28;20037;-55
2021/04/29 06:42:06;;;;;;;7.47;3.00;;;;;;;;;;5083691;28;20048;-55
2021/04/29 06:44:32;;;;;;;6.35;3.00;;;;;;;;;;5082008;28;20071;-52
2021/04/29 06:46:58;;;;;;;4.78;3.00;;;;;;;;;;5087688;28;20097;-57
2021/04/29 06:49:26;;;;;;;6.75;3.38;;;;;;;;;;5082824;28;20035;-52
2021/04/29 06:51:52;;;;;;;4.53;3.00;;;;;;;;;;5082097;28;20078;-53
2021/04/29 06:54:19;;;;;;;6.30;3.38;;;;;;;;;;5076810;28;20048;-54
2021/04/29 06:56:45;;;;;;;6.22;3.08;;;;;;;;;;5079994;28;20101;-52
2021/04/29 06:59:11;;;;;;;6.93;3.35;;;;;;;;;;5075721;28;20041;-52
2021/04/29 07:01:37;;;;;;;4.82;2.90;;;;;;;;;;5074115;28;20121;-52
2021/04/29 07:04:04;;;;;;;4.78;2.85;;;;;;;;;;5085980;28;20059;-55
2021/04/29 07:06:31;;;;;;;7.28;3.17;;;;;;;;;;5080534;28;20044;-52
2021/04/29 07:09:00;;;;;;;5.47;2.78;;;;;;;;;;5082737;28;20059;-54
2021/04/29 07:11:27;;;;;;;5.85;3.13;;;;;;;;;;5082060;28;20047;-53
2021/04/29 07:13:53;;;;;;;3.97;2.67;;;;;;;;;;5078706;28;20189;-55
2021/04/29 07:16:19;;;;;;;4.57;2.95;;;;;;;;;;5082272;28;20553;-53
2021/04/29 07:18:47;;;;;;;7.78;3.00;;;;;;;;;;5078335;28;20059;-54
2021/04/29 07:21:13;;;;;;;4.57;2.92;;;;;;;;;;5075434;28;20045;-57
2021/04/29 07:23:39;;;;;;;7.78;3.47;;;;;;;;;;5086080;28;20105;-51
2021/04/29 07:26:05;;;;;;;3.22;2.00;;;;;;;;;;5076312;28;20045;-56
2021/04/29 07:28:32;;;;;;;4.85;3.00;;;;;;;;;;5076888;28;20036;-52
2021/04/29 07:30:58;;;;;;;3.78;2.67;;;;;;;;;;5081998;28;20057;-52
2021/04/29 07:33:24;;;;;;;7.43;2.60;;;;;;;;;;5077839;28;20040;-53
2021/04/29 07:35:50;;;;;;;5.85;3.17;;;;;;;;;;5086767;28;20224;-54
2021/04/29 07:38:17;;;;;;;3.70;2.33;;;;;;;;;;5087155;28;20089;-55
2021/04/29 07:40:43;;;;;;;4.03;2.90;;;;;;;;;;5086536;28;20500;-53
2021/04/29 07:43:10;;;;;;;8.15;3.10;;;;;;;;;;5080508;28;20394;-57
2021/04/29 07:45:36;;;;;;;4.78;2.78;;;;;;;;;;5082593;28;20046;-52
2021/04/29 07:48:03;;;;;;;6.23;3.07;;;;;;;;;;5078242;28;20146;-51
2021/04/29 07:50:31;;;;;;;5.43;3.13;;;;;;;;;;5076128;28;20139;-55
2021/04/29 07:52:58;;;;;;;5.32;3.17;;;;;;;;;;5073831;28;20048;-57
2021/04/29 07:55:26;;;;;;;7.93;3.58;;;;;;;;;;5073655;28;20040;-52
2021/04/29 07:57:52;;;;;;;5.38;2.90;;;;;;;;;;5076031;28;20090;-53
2021/04/29 08:00:18;;;;;;;6.43;3.22;;;;;;;;;;5082698;28;20037;-53
2021/04/29 08:02:45;;;;;;;4.82;3.10;;;;;;;;;;5082779;28;20504;-55
2021/04/29 08:05:12;;;;;;;4.50;2.88;;;;;;;;;;5080032;28;20566;-53
2021/04/29 08:07:38;;;;;;;5.35;3.00;;;;;;;;;;5079589;28;20093;-55
2021/04/29 08:10:06;;;;;;;6.53;3.20;;;;;;;;;;5082609;28;20121;-51
2021/04/29 08:12:32;;;;;;;7.20;3.15;;;;;;;;;;5083673;28;20090;-56
2021/04/29 08:15:00;;;;;;;6.13;2.95;;;;;;;;;;5088280;28;20082;-51
2021/04/29 08:17:26;;;;;;;;;;;;;;;;;;5080890;28;20115;-52
2021/04/29 08:19:54;;;;;;;13.45;3.67;;;;;;;;;;5082409;28;19966;-53
2021/04/29 08:22:21;;;;;;;5.57;3.53;;;;;;;;;;5079892;28;20052;-55
2021/04/29 08:24:50;;;;;;;5.60;3.20;;;;;;;;;;5076859;28;20101;-56
2021/04/29 08:27:17;;;;;;;5.00;3.17;;;;;;;;;;5079561;28;20068;-50
2021/04/29 08:29:43;;;;;;;7.07;2.80;;;;;;;;;;5081961;28;20094;-55
2021/04/29 08:32:09;;;;;;;6.22;3.15;;;;;;;;;;5085604;28;20221;-53
2021/04/29 08:34:36;;;;;;;6.80;2.95;;;;;;;;;;5084477;28;20048;-54
2021/04/29 08:37:02;;;;;;;5.95;3.10;;;;;;;;;;5086400;28;20039;-53
2021/04/29 08:39:29;;;;;;;3.13;2.07;;;;;;;;;;5086481;28;20063;-51
2021/04/29 08:41:55;;;;;;;5.97;2.80;;;;;;;;;;5083918;28;20294;-52
2021/04/29 08:44:21;;;;;;;5.00;2.20;;;;;;;;;;5085239;28;20047;-56
2021/04/29 08:46:48;;;;;;;4.95;2.75;;;;;;;;;;5087610;28;20036;-57
2021/04/29 08:49:15;;;;;;;5.90;3.25;;;;;;;;;;5084395;28;20044;-53
2021/04/29 08:51:42;;;;;;;5.20;3.63;;;;;;;;;;5082060;28;20510;-53
2021/04/29 08:54:09;;;;;;;6.53;3.10;;;;;;;;;;5082165;28;20080;-54
2021/04/29 08:56:35;;;;;;;4.75;3.13;;;;;;;;;;5088401;28;20275;-56
2021/04/29 08:59:01;;;;;;;4.50;2.85;;;;;;;;;;5084993;28;20487;-53
2021/04/29 09:01:38;;;;;;;6.93;3.10;;;;;;;;;;5086157;28;20044;-57
2021/04/29 09:04:08;;;;;;;5.20;3.28;;;;;;;;;;5084081;28;20503;-53
2021/04/29 09:06:35;;;;;;;4.78;3.20;;;;;;;;;;5085003;28;20587;-55
2021/04/29 09:09:01;;;;;;;6.20;3.28;;;;;;;;;;5086125;28;20040;-51
2021/04/29 09:11:27;;;;;;;6.00;3.45;;;;;;;;;;5084452;28;20044;-56
2021/04/29 09:13:59;;;;;;;4.63;3.40;;;;;;;;;;5089720;28;20509;-55
2021/04/29 09:16:36;;;;;;;6.70;2.67;;;;;;;;;;5079689;28;20098;-50
2021/04/29 09:19:03;;;;;;;4.38;3.03;;;;;;;;;;5078249;28;20080;-55
2021/04/29 09:21:33;;;;;;;7.70;3.80;;;;;;;;;;5086334;28;20051;-53
2021/04/29 09:23:59;;;;;;;6.47;3.22;;;;;;;;;;5081189;28;20294;-52
2021/04/29 09:26:31;;;;;;;8.43;2.80;;;;;;;;;;5082746;28;20402;-54
2021/04/29 09:29:05;;;;;;;7.15;3.25;;;;;;;;;;5085146;28;20491;-55
2021/04/29 09:31:36;;;;;;;5.53;3.15;;;;;;;;;;5084149;28;20056;-53
2021/04/29 09:34:02;;;;;;;8.10;2.90;;;;;;;;;;5086652;28;20045;-54
2021/04/29 09:36:33;;;;;;;5.03;3.20;;;;;;;;;;5086292;28;20097;-54
2021/04/29 09:39:05;;;;;;;5.35;2.95;;;;;;;;;;5085211;28;20308;-52
2021/04/29 09:41:36;;;;;;;2.55;1.83;;;;;;;;;;5081188;28;20045;-52
2021/04/29 09:44:04;;;;;;;4.60;2.25;;;;;;;;;;5073337;28;20043;-53
2021/04/29 09:46:40;;;;;;;3.45;2.33;;;;;;;;;;5084938;28;20492;-54
2021/04/29 09:49:22;;;;;;;4.20;2.70;;;;;;;;;;5079771;28;20037;-52
2021/04/29 09:51:49;;;;;;;5.13;3.00;;;;;;;;;;5083299;28;20401;-54
2021/04/29 09:54:23;;;;;;;5.45;3.30;;;;;;;;;;5087229;28;20044;-54
2021/04/29 09:57:09;;;;;;;4.82;2.92;;;;;;;;;;5083877;28;20086;-54
2021/04/29 09:59:40;;;;;;;4.85;2.97;;;;;;;;;;5084946;28;20040;-51
2021/04/29 10:02:07;;;;;;;5.47;2.90;;;;;;;;;;5083917;28;20495;-51
2021/04/29 10:04:33;;;;;;;8.95;3.05;;;;;;;;;;5085051;28;20072;-56
2021/04/29 10:07:00;;;;;;;4.90;3.00;;;;;;;;;;5080508;28;20043;-56
2021/04/29 10:09:28;;;;;;;5.00;3.13;;;;;;;;;;5076250;28;20044;-56
2021/04/29 10:12:02;;;;;;;5.55;3.08;;;;;;;;;;5076601;28;20075;-55
2021/04/29 10:14:31;;;;;;;4.57;2.83;;;;;;;;;;5085096;28;20109;-52
2021/04/29 10:16:57;;;;;;;4.47;2.92;;;;;;;;;;5074649;28;20079;-53
2021/04/29 10:19:24;;;;;;;6.72;2.63;;;;;;;;;;5081462;28;20495;-54
2021/04/29 10:21:51;;;;;;;6.30;2.80;;;;;;;;;;5081308;28;20055;-55
2021/04/29 10:24:17;;;;;;;4.43;2.65;;;;;;;;;;5080308;28;20098;-52
2021/04/29 10:26:43;;;;;;;4.68;2.78;;;;;;;;;;5074489;28;20101;-53
2021/04/29 10:29:10;;;;;;;9.75;3.00;;;;;;;;;;5083042;28;20101;-51
2021/04/29 10:31:36;;;;;;;6.15;2.70;;;;;;;;;;5084926;28;20082;-54
2021/04/29 10:34:03;;;;;;;4.70;2.70;;;;;;;;;;5080969;28;20416;-54
2021/04/29 10:36:49;;;;;;;3.72;2.63;;;;;;;;;;5086902;28;20093;-53
2021/04/29 10:39:23;;;;;;;4.43;2.53;;;;;;;;;;5078380;28;20063;-51
2021/04/29 10:42:10;;;;;;;5.88;2.58;;;;;;;;;;5078004;28;20120;-53
2021/04/29 10:44:39;;;;;;;4.72;2.67;;;;;;;;;;5081097;28;20081;-52
2021/04/29 10:47:06;;;;;;;5.00;2.63;;;;;;;;;;5084021;28;20423;-57
2021/04/29 10:49:34;;;;;;;9.43;2.90;;;;;;;;;;5079179;28;20052;-55
2021/04/29 10:52:01;;;;;;;5.63;2.80;;;;;;;;;;5085256;28;20082;-55
2021/04/29 10:54:28;;;;;;;5.97;2.95;;;;;;;;;;5085333;28;20040;-53
2021/04/29 10:57:03;;;;;;;5.50;2.60;;;;;;;;;;5085704;28;20442;-50
2021/04/29 10:59:56;;;;;;;3.65;2.60;;;;;;;;;;5082747;28;20052;-52
2021/04/29 11:02:22;;;;;;;5.68;2.72;;;;;;;;;;5083483;28;20106;-53
2021/04/29 11:04:51;;;;;;;4.20;2.67;;;;;;;;;;5083881;28;20045;-55
2021/04/29 11:07:18;;;;;;;5.22;2.80;;;;;;;;;;5076001;28;20487;-54
2021/04/29 11:09:55;;;;;;;4.72;2.53;;;;;;;;;;5080660;28;20122;-54
2021/04/29 11:12:22;;;;;;;3.65;2.65;;;;;;;;;;5087293;28;20055;-54
2021/04/29 11:14:48;;;;;;;5.57;2.58;;;;;;;;;;5080755;28;20060;-55
2021/04/29 11:17:19;;;;;;;3.17;2.67;;;;;;;;;;5083380;28;20044;-55
2021/04/29 11:19:54;;;;;;;4.72;2.40;;;;;;;;;;5083581;28;20055;-55
2021/04/29 11:22:25;;;;;;;4.70;2.42;;;;;;;;;;5082836;28;20498;-55
2021/04/29 11:24:52;;;;;;;3.85;2.40;;;;;;;;;;5082904;28;20101;-52
2021/04/29 11:27:26;;;;;;;6.47;2.58;;;;;;;;;;5084878;28;20402;-54
2021/04/29 11:30:06;;;;;;;3.88;2.47;;;;;;;;;;5086994;28;20097;-52
2021/04/29 11:32:34;;;;;;;7.15;1.95;;;;;;;;;;5078972;28;20482;-50
2021/04/29 11:35:02;;;;;;;7.22;2.50;;;;;;;;;;5073452;28;20036;-50
2021/04/29 11:37:39;;;;;;;5.55;2.25;;;;;;;;;;5077753;28;20064;-55
2021/04/29 11:40:06;;;;;;;5.18;2.55;;;;;;;;;;5078070;28;20044;-54
2021/04/29 11:42:32;;;;;;;7.30;2.60;;;;;;;;;;5082240;28;20465;-52
2021/04/29 11:45:12;;;;;;;3.92;2.20;;;;;;;;;;5080799;28;20298;-51
2021/04/29 11:48:01;;;;;;;6.22;2.60;;;;;;;;;;5081967;28;20407;-55
2021/04/29 11:50:29;;;;;;;3.53;2.45;;;;;;;;;;5083217;28;20055;-55
2021/04/29 11:53:14;;;;;;;7.60;2.30;;;;;;;;;;5079472;28;20072;-54
2021/04/29 11:55:50;;;;;;;8.18;2.13;;;;;;;;;;5086963;28;20044;-51
2021/04/29 11:58:18;;;;;;;4.45;2.35;;;;;;;;;;5079290;28;20117;-53
2021/04/29 12:00:48;;;;;;;5.57;2.20;;;;;;;;;;5078198;28;20039;-57
2021/04/29 12:03:14;;;;;;;5.32;2.90;;;;;;;;;;5080983;28;20044;-56
2021/04/29 12:05:42;;;;;;;7.03;2.10;;;;;;;;;;5081251;28;20522;-54
2021/04/29 12:08:10;;;;;;;5.30;2.80;;;;;;;;;;5081697;28;20040;-55
2021/04/29 12:10:40;;;;;;;3.40;1.80;;;;;;;;;;5084665;28;20037;-52
2021/04/29 12:13:07;;;;;;;3.55;2.15;;;;;;;;;;5083575;28;20078;-52
2021/04/29 12:15:33;;;;;;;3.95;1.98;;;;;;;;;;5083503;28;20044;-52
2021/04/29 12:17:59;;;;;;;3.35;2.13;;;;;;;;;;5081035;28;20114;-54
2021/04/29 12:20:26;;;;;;;9.93;2.13;;;;;;;;;;5085881;28;20038;-56
2021/04/29 12:22:52;;;;;;;5.15;2.30;;;;;;;;;;5083897;28;20056;-54
2021/04/29 12:25:19;;;;;;;6.15;2.17;;;;;;;;;;5075748;28;20045;-53
2021/04/29 12:27:45;;;;;;;6.70;2.22;;;;;;;;;;5077718;28;20047;-53
2021/04/29 12:30:11;;;;;;;6.07;2.20;;;;;;;;;;5076511;28;20405;-56
2021/04/29 12:32:39;;;;;;;3.20;1.88;;;;;;;;;;5075468;28;20074;-53
2021/04/29 12:35:06;;;;;;;5.50;2.25;;;;;;;;;;5076239;28;20131;-58
2021/04/29 12:37:33;;;;;;;4.13;2.20;;;;;;;;;;5085251;28;20453;-50
2021/04/29 12:39:59;;;;;;;4.90;2.08;;;;;;;;;;5076097;28;20110;-51
2021/04/29 12:42:25;;;;;;;4.97;2.17;;;;;;;;;;5080850;28;20132;-52
2021/04/29 12:45:03;;;;;;;2.50;2.13;;;;;;;;;;5080691;28;20051;-54
2021/04/29 12:47:33;;;;;;;2.40;2.00;;;;;;;;;;5082937;28;20048;-54
2021/04/29 12:50:02;;;;;;;7.97;1.80;;;;;;;;;;5079293;28;20048;-55
2021/04/29 12:52:30;;;;;;;4.07;1.90;;;;;;;;;;5084665;28;20530;-53
2021/04/29 12:54:57;;;;;;;2.47;1.90;;;;;;;;;;5079413;28;20450;-54
2021/04/29 12:57:24;;;;;;;4.10;1.70;;;;;;;;;;5077512;28;20431;-56
2021/04/29 12:59:51;;;;;;;4.22;2.05;;;;;;;;;;5077681;28;20040;-52
2021/04/29 13:02:22;;;;;;;4.05;1.98;;;;;;;;;;5080905;28;20463;-56
2021/04/29 13:05:02;;;;;;;7.07;2.00;;;;;;;;;;5079111;28;20043;-53
2021/04/29 13:07:29;;;;;;;5.30;1.88;;;;;;;;;;5083826;28;20040;-55
2021/04/29 13:09:55;;;;;;;5.63;2.10;;;;;;;;;;5085560;28;20380;-50
2021/04/29 13:12:22;;;;;;;8.38;2.03;;;;;;;;;;5084390;28;20040;-54
2021/04/29 13:15:00;;;;;;;3.33;1.87;;;;;;;;;;5084860;28;20067;-56
2021/04/29 13:17:27;;;;;;;6.87;2.10;;;;;;;;;;5085772;28;20302;-53
2021/04/29 13:19:58;;;;;;;3.88;1.90;;;;;;;;;;5077909;28;20293;-53
2021/04/29 13:22:24;;;;;;;2.47;1.85;;;;;;;;;;5083717;28;20045;-54
2021/04/29 13:24:50;;;;;;;4.22;1.65;;;;;;;;;;5075891;28;20117;-55
2021/04/29 13:27:18;;;;;;;8.45;2.25;;;;;;;;;;5078851;28;20036;-51
2021/04/29 13:29:45;;;;;;;4.18;2.30;;;;;;;;;;5087078;28;20059;-57
2021/04/29 13:32:14;;;;;;;5.03;2.22;;;;;;;;;;5081380;28;20399;-52
2021/04/29 13:34:42;;;;;;;3.63;1.80;;;;;;;;;;5080315;28;20047;-56
2021/04/29 13:37:28;;;;;;;5.95;2.00;;;;;;;;;;5083968;28;20051;-55
2021/04/29 13:39:56;;;;;;;4.05;1.90;;;;;;;;;;5085869;28;20044;-55
2021/04/29 13:42:24;;;;;;;4.47;2.00;;;;;;;;;;5086167;28;20128;-54
2021/04/29 13:44:51;;;;;;;4.97;1.80;;;;;;;;;;5090874;28;20124;-53
2021/04/29 13:47:19;;;;;;;7.90;1.90;;;;;;;;;;5087266;28;20492;-54
2021/04/29 13:49:47;;;;;;;5.03;1.65;;;;;;;;;;5084271;28;20037;-58
2021/04/29 13:52:12;;;;;;;;;;;;;;;;;;5086886;28;20574;-52
2021/04/29 13:54:39;;;;;;;4.65;2.63;;;;;;;;;;5080525;28;20470;-53
2021/04/29 13:57:06;;;;;;;5.65;2.20;;;;;;;;;;5086762;28;20127;-55
2021/04/29 13:59:33;;;;;;;6.32;1.80;;;;;;;;;;5077928;28;20443;-51
2021/04/29 14:02:02;;;;;;;5.50;1.67;;;;;;;;;;5084284;28;20047;-55
2021/04/29 14:04:29;;;;;;;3.00;1.98;;;;;;;;;;5083923;28;20048;-54
2021/04/29 14:06:55;;;;;;;8.63;2.00;;;;;;;;;;5081016;28;20537;-56
2021/04/29 14:09:23;;;;;;;6.60;1.98;;;;;;;;;;5083511;28;20048;-52
2021/04/29 14:11:49;;;;;;;6.38;2.25;;;;;;;;;;5080842;28;20044;-53
2021/04/29 14:14:16;;;;;;;4.82;1.75;;;;;;;;;;5085285;28;20399;-57
2021/04/29 14:16:44;;;;;;;5.97;2.03;;;;;;;;;;5083945;28;20045;-56
2021/04/29 14:19:15;;;;;;;3.78;2.03;;;;;;;;;;5083197;28;20131;-57
2021/04/29 14:21:43;;;;;;;5.32;1.90;;;;;;;;;;5087040;28;20044;-57
2021/04/29 14:24:09;;;;;;;;;;;;;;;;;;5088732;28;20056;-56
2021/04/29 14:26:36;;;;;;;2.30;1.63;;;;;;;;;;5089955;28;19924;-56
2021/04/29 14:29:06;;;;;;;4.80;1.77;;;;;;;;;;5084227;28;20054;-58
2021/04/29 14:31:32;;;;;;;5.35;2.00;;;;;;;;;;5080783;28;20062;-55
2021/04/29 14:33:59;;;;;;;2.47;1.83;;;;;;;;;;5083114;28;20051;-56
2021/04/29 14:36:25;;;;;;;3.95;1.90;;;;;;;;;;5084260;28;20040;-58
2021/04/29 14:38:52;;;;;;;2.70;1.67;;;;;;;;;;5081235;28;20207;-55
2021/04/29 14:41:18;;;;;;;3.42;1.90;;;;;;;;;;5083231;28;20040;-54
2021/04/29 14:43:44;;;;;;;7.38;2.10;;;;;;;;;;5076262;28;20100;-57
2021/04/29 14:46:10;;;;;;;6.70;1.80;;;;;;;;;;5075318;28;20120;-55
2021/04/29 14:48:36;;;;;;;3.63;1.73;;;;;;;;;;5077577;28;20047;-54